createdAt,value
2023-05-01T00:01:18.931Z,15.24
2023-05-01T00:03:45.925Z,15.18
2023-05-01T00:06:12.687Z,15.20
2023-05-01T00:08:39.537Z,15.17
2023-05-01T00:11:09.674Z,15.22
2023-05-01T00:13:36.217Z,15.26
2023-05-01T00:16:08.574Z,15.12
2023-05-01T00:18:35.083Z,14.98
2023-05-01T00:21:01.603Z,15.00
2023-05-01T00:23:28.077Z,15.03
2023-05-01T00:25:54.635Z,15.01
2023-05-01T00:28:21.407Z,14.99
2023-05-01T00:30:47.965Z,14.88
2023-05-01T00:33:14.615Z,14.92
2023-05-01T00:35:44.142Z,15.08
2023-05-01T00:38:11.552Z,15.12
2023-05-01T00:40:47.589Z,14.97
2023-05-01T00:43:14.286Z,14.93
2023-05-01T00:45:45.119Z,14.85
2023-05-01T00:48:12.126Z,15.02
2023-05-01T00:50:38.993Z,14.93
2023-05-01T00:53:06.236Z,14.89
2023-05-01T00:55:33.733Z,15.02
2023-05-01T00:58:01.427Z,14.95
2023-05-01T01:00:29.436Z,14.90
2023-05-01T01:02:56.184Z,14.91
2023-05-01T01:05:25.801Z,14.91
2023-05-01T01:08:02.561Z,14.87
2023-05-01T01:10:37.340Z,14.71
2023-05-01T01:13:33.946Z,14.75
2023-05-01T01:16:28.093Z,14.91
2023-05-01T01:19:07.520Z,14.77
2023-05-01T01:21:39.692Z,14.76
2023-05-01T01:24:39.290Z,14.68
2023-05-01T01:27:30.638Z,14.64
2023-05-01T01:30:18.929Z,14.56
2023-05-01T01:33:36.057Z,14.55
2023-05-01T01:36:07.688Z,14.41
2023-05-01T01:38:41.472Z,14.49
2023-05-01T01:41:12.347Z,14.44
2023-05-01T01:43:44.074Z,14.54
2023-05-01T01:46:11.583Z,14.59
2023-05-01T01:48:42.807Z,14.57
2023-05-01T01:51:13.365Z,14.66
2023-05-01T01:53:41.852Z,14.64
2023-05-01T01:56:09.319Z,14.65
2023-05-01T01:58:37.281Z,14.73
2023-05-01T02:01:04.192Z,14.72
2023-05-01T02:03:31.805Z,14.72
2023-05-01T02:05:59.027Z,14.66
2023-05-01T02:08:25.887Z,14.45
2023-05-01T02:10:58.849Z,14.62
2023-05-01T02:13:29.326Z,14.64
2023-05-01T02:15:58.416Z,14.60
2023-05-01T02:18:27.598Z,14.63
2023-05-01T02:20:56.125Z,14.69
2023-05-01T02:23:23.954Z,14.63
2023-05-01T02:25:52.962Z,14.58
2023-05-01T02:28:23.506Z,14.61
2023-05-01T02:30:50.052Z,14.65
2023-05-01T02:33:16.449Z,14.71
2023-05-01T02:35:49.838Z,14.72
2023-05-01T02:38:18.540Z,14.64
2023-05-01T02:40:47.002Z,14.59
2023-05-01T02:43:16.401Z,14.50
2023-05-01T02:45:44.948Z,14.56
2023-05-01T02:48:15.748Z,14.50
2023-05-01T02:50:45.094Z,14.56
2023-05-01T02:53:13.081Z,14.37
2023-05-01T02:55:47.212Z,14.27
2023-05-01T02:58:20.559Z,14.39
2023-05-01T03:00:50.007Z,14.52
2023-05-01T03:03:17.357Z,14.59
2023-05-01T03:05:43.990Z,14.67
2023-05-01T03:08:11.501Z,14.56
2023-05-01T03:10:41.558Z,14.51
2023-05-01T03:13:08.404Z,14.50
2023-05-01T03:15:34.880Z,14.50
2023-05-01T03:18:01.424Z,14.54
2023-05-01T03:20:29.744Z,14.40
2023-05-01T03:22:57.335Z,14.38
2023-05-01T03:25:23.880Z,14.46
2023-05-01T03:27:50.357Z,14.39
2023-05-01T03:30:17.018Z,14.49
2023-05-01T03:32:43.625Z,14.49
2023-05-01T03:35:18.072Z,14.48
2023-05-01T03:37:44.673Z,14.48
2023-05-01T03:40:16.373Z,14.37
2023-05-01T03:43:01.633Z,14.44
2023-05-01T03:45:28.275Z,14.44
2023-05-01T03:47:54.885Z,14.47
2023-05-01T03:50:21.531Z,14.25
2023-05-01T03:52:50.737Z,14.45
2023-05-01T03:55:17.876Z,14.43
2023-05-01T03:57:47.550Z,14.48
2023-05-01T04:00:14.387Z,14.48
2023-05-01T04:02:45.140Z,14.43
2023-05-01T04:05:16.829Z,14.41
2023-05-01T04:07:48.252Z,14.44
2023-05-01T04:10:14.937Z,14.44
2023-05-01T04:12:48.637Z,14.47
2023-05-01T04:15:15.675Z,14.51
2023-05-01T04:17:43.823Z,14.61
2023-05-01T04:20:11.067Z,14.52
2023-05-01T04:22:38.129Z,14.52
2023-05-01T04:25:04.857Z,14.62
2023-05-01T04:27:31.745Z,14.67
2023-05-01T04:29:58.736Z,14.68
2023-05-01T04:32:25.620Z,14.60
2023-05-01T04:34:52.291Z,14.67
2023-05-01T04:37:18.959Z,14.64
2023-05-01T04:39:45.775Z,14.57
2023-05-01T04:42:12.642Z,14.62
2023-05-01T04:44:39.886Z,14.59
2023-05-01T04:47:06.488Z,14.69
2023-05-01T04:49:33.303Z,14.74
2023-05-01T04:51:59.851Z,14.80
2023-05-01T04:54:34.091Z,14.72
2023-05-01T04:57:00.818Z,14.82
2023-05-01T04:59:27.390Z,14.80
2023-05-01T05:01:55.362Z,14.88
2023-05-01T05:04:22.518Z,14.89
2023-05-01T05:06:49.918Z,14.87
2023-05-01T05:09:24.618Z,14.91
2023-05-01T05:11:51.181Z,14.98
2023-05-01T05:14:22.376Z,14.99
2023-05-01T05:16:49.032Z,15.04
2023-05-01T05:19:16.952Z,15.06
2023-05-01T05:21:43.510Z,15.09
2023-05-01T05:24:10.344Z,15.15
2023-05-01T05:26:36.882Z,15.20
2023-05-01T05:29:03.886Z,15.14
2023-05-01T05:31:30.407Z,15.12
2023-05-01T05:33:57.036Z,15.14
2023-05-01T05:36:24.827Z,15.20
2023-05-01T05:38:51.764Z,15.23
2023-05-01T05:41:19.112Z,15.24
2023-05-01T05:43:47.425Z,15.26
2023-05-01T05:46:13.930Z,15.26
2023-05-01T05:48:41.709Z,15.31
2023-05-01T05:51:09.207Z,15.29
2023-05-01T05:53:35.794Z,15.13
2023-05-01T05:56:02.342Z,15.22
2023-05-01T05:58:29.672Z,15.28
2023-05-01T06:00:56.320Z,15.27
2023-05-01T06:03:23.347Z,15.26
2023-05-01T06:05:52.545Z,15.26
2023-05-01T06:08:19.102Z,15.33
2023-05-01T06:10:46.189Z,15.32
2023-05-01T06:13:14.891Z,15.31
2023-05-01T06:15:46.737Z,15.31
2023-05-01T06:18:13.533Z,15.25
2023-05-01T06:20:40.288Z,15.32
2023-05-01T06:23:09.533Z,15.37
2023-05-01T06:25:50.307Z,15.39
2023-05-01T06:28:16.802Z,15.35
2023-05-01T06:30:43.375Z,15.35
2023-05-01T06:33:10.828Z,15.21
2023-05-01T06:35:39.770Z,15.35
2023-05-01T06:38:06.420Z,15.38
2023-05-01T06:40:34.881Z,15.46
2023-05-01T06:43:02.966Z,15.52
2023-05-01T06:45:30.217Z,15.58
2023-05-01T06:47:56.851Z,15.63
2023-05-01T06:50:23.771Z,15.66
2023-05-01T06:52:50.587Z,15.65
2023-05-01T06:55:17.370Z,15.63
2023-05-01T06:57:44.488Z,15.58
2023-05-01T07:00:12.345Z,15.59
2023-05-01T07:02:40.813Z,15.67
2023-05-01T07:05:07.650Z,15.73
2023-05-01T07:07:34.165Z,15.67
2023-05-01T07:10:01.368Z,15.68
2023-05-01T07:12:29.687Z,15.81
2023-05-01T07:14:56.958Z,15.86
2023-05-01T07:17:23.668Z,15.85
2023-05-01T07:19:50.621Z,15.75
2023-05-01T07:22:17.141Z,15.65
2023-05-01T07:24:43.841Z,15.63
2023-05-01T07:27:10.468Z,15.81
2023-05-01T07:29:38.811Z,15.84
2023-05-01T07:32:06.535Z,15.72
2023-05-01T07:34:33.244Z,15.69
2023-05-01T07:36:59.774Z,15.87
2023-05-01T07:39:26.447Z,15.80
2023-05-01T07:41:53.100Z,15.69
2023-05-01T07:44:19.741Z,15.65
2023-05-01T07:46:46.419Z,15.78
2023-05-01T07:49:13.159Z,15.96
2023-05-01T07:51:39.687Z,15.96
2023-05-01T07:54:06.228Z,15.97
2023-05-01T07:56:32.976Z,16.00
2023-05-01T07:58:59.496Z,16.04
2023-05-01T08:01:26.060Z,15.92
2023-05-01T08:03:52.682Z,16.06
2023-05-01T08:06:19.273Z,16.15
2023-05-01T08:08:45.899Z,16.30
2023-05-01T08:11:12.513Z,16.51
2023-05-01T08:13:39.036Z,16.27
2023-05-01T08:16:05.753Z,16.58
2023-05-01T08:18:32.450Z,16.58
2023-05-01T08:20:59.244Z,16.57
2023-05-01T08:23:25.801Z,16.64
2023-05-01T08:25:52.588Z,16.64
2023-05-01T08:28:22.996Z,16.59
2023-05-01T08:30:49.854Z,16.89
2023-05-01T08:33:16.604Z,16.86
2023-05-01T08:35:43.326Z,16.88
2023-05-01T08:38:11.613Z,16.74
2023-05-01T08:40:39.019Z,16.82
2023-05-01T08:43:05.592Z,17.04
2023-05-01T08:45:36.165Z,16.98
2023-05-01T08:48:06.181Z,17.15
2023-05-01T08:50:39.129Z,17.05
2023-05-01T08:53:06.500Z,17.18
2023-05-01T08:55:35.270Z,17.01
2023-05-01T08:58:03.267Z,16.92
2023-05-01T09:00:31.216Z,16.68
2023-05-01T09:03:01.618Z,16.69
2023-05-01T09:05:28.254Z,17.34
2023-05-01T09:07:55.171Z,17.32
2023-05-01T09:10:21.752Z,17.31
2023-05-01T09:12:51.770Z,16.32
2023-05-01T09:15:18.356Z,16.67
2023-05-01T09:17:45.621Z,16.73
2023-05-01T09:20:12.457Z,17.17
2023-05-01T09:22:39.015Z,17.45
2023-05-01T09:25:06.465Z,17.38
2023-05-01T09:27:37.037Z,17.92
2023-05-01T09:30:05.989Z,17.99
2023-05-01T09:32:32.719Z,17.83
2023-05-01T09:35:14.083Z,18.39
2023-05-01T09:37:41.374Z,18.62
2023-05-01T09:40:13.074Z,18.02
2023-05-01T09:42:50.193Z,18.49
2023-05-01T09:45:17.719Z,18.23
2023-05-01T09:47:45.789Z,18.31
2023-05-01T09:50:29.198Z,18.48
2023-05-01T09:52:55.711Z,18.49
2023-05-01T09:55:25.638Z,18.58
2023-05-01T09:57:53.374Z,18.89
2023-05-01T10:00:22.118Z,18.86
2023-05-01T10:02:49.981Z,18.54
2023-05-01T10:05:16.940Z,17.59
2023-05-01T10:08:16.174Z,18.26
2023-05-01T10:10:47.148Z,17.84
2023-05-01T10:13:15.265Z,17.34
2023-05-01T10:15:41.820Z,17.58
2023-05-01T10:18:10.549Z,17.56
2023-05-01T10:20:37.183Z,17.96
2023-05-01T10:23:04.038Z,18.10
2023-05-01T10:25:31.613Z,17.65
2023-05-01T10:27:58.704Z,17.79
2023-05-01T10:30:30.230Z,18.00
2023-05-01T10:32:57.636Z,17.67
2023-05-01T10:35:27.000Z,17.54
2023-05-01T10:38:05.227Z,17.50
2023-05-01T10:40:44.522Z,17.74
2023-05-01T10:43:32.474Z,18.24
2023-05-01T10:46:08.533Z,18.15
2023-05-01T10:48:37.938Z,18.62
2023-05-01T10:51:15.540Z,18.95
2023-05-01T10:53:42.835Z,18.61
2023-05-01T10:56:21.384Z,18.71
2023-05-01T10:58:53.669Z,18.08
2023-05-01T11:01:37.634Z,17.27
2023-05-01T11:04:08.096Z,17.60
2023-05-01T11:06:35.933Z,18.41
2023-05-01T11:09:41.499Z,18.33
2023-05-01T11:12:10.285Z,18.28
2023-05-01T11:15:05.626Z,18.33
2023-05-01T11:17:41.841Z,18.25
2023-05-01T11:20:10.005Z,17.83
2023-05-01T11:22:37.834Z,18.74
2023-05-01T11:25:05.269Z,18.59
2023-05-01T11:27:32.030Z,18.12
2023-05-01T11:29:59.609Z,17.12
2023-05-01T11:32:30.283Z,18.34
2023-05-01T11:34:57.411Z,18.92
2023-05-01T11:37:44.530Z,19.06
2023-05-01T11:40:24.445Z,18.45
2023-05-01T11:42:51.978Z,19.02
2023-05-01T11:45:19.833Z,18.31
2023-05-01T11:47:47.179Z,18.23
2023-05-01T11:50:13.774Z,18.45
2023-05-01T11:52:49.355Z,18.48
2023-05-01T11:55:16.762Z,18.82
2023-05-01T11:57:51.655Z,18.72
2023-05-01T12:00:29.683Z,18.26
2023-05-01T12:03:03.258Z,18.49
2023-05-01T12:05:31.719Z,18.59
2023-05-01T12:08:27.560Z,17.95
2023-05-01T12:10:56.477Z,18.76
2023-05-01T12:13:24.062Z,18.87
2023-05-01T12:15:54.793Z,18.80
2023-05-01T12:18:22.052Z,18.38
2023-05-01T12:20:51.768Z,18.38
2023-05-01T12:23:19.971Z,18.92
2023-05-01T12:25:47.007Z,18.56
2023-05-01T12:28:15.607Z,18.86
2023-05-01T12:30:43.192Z,19.29
2023-05-01T12:33:15.740Z,19.54
2023-05-01T12:35:45.278Z,19.35
2023-05-01T12:38:17.146Z,19.55
2023-05-01T12:41:00.503Z,19.59
2023-05-01T12:43:32.707Z,19.27
2023-05-01T12:46:00.115Z,19.07
2023-05-01T12:48:26.748Z,19.98
2023-05-01T12:50:57.022Z,20.04
2023-05-01T12:53:25.471Z,20.21
2023-05-01T12:55:54.423Z,20.59
2023-05-01T12:58:21.284Z,20.19
2023-05-01T13:00:53.033Z,20.25
2023-05-01T13:03:29.811Z,19.32
2023-05-01T13:06:01.106Z,18.47
2023-05-01T13:08:33.290Z,19.24
2023-05-01T13:11:01.775Z,19.45
2023-05-01T13:13:30.619Z,19.99
2023-05-01T13:16:09.812Z,19.71
2023-05-01T13:18:50.211Z,19.51
2023-05-01T13:21:20.181Z,19.62
2023-05-01T13:23:55.580Z,19.86
2023-05-01T13:26:31.186Z,19.53
2023-05-01T13:28:58.768Z,19.89
2023-05-01T13:31:25.780Z,19.55
2023-05-01T13:33:53.668Z,19.98
2023-05-01T13:36:26.181Z,19.55
2023-05-01T13:38:56.101Z,18.90
2023-05-01T13:41:27.527Z,18.48
2023-05-01T13:43:56.040Z,18.76
2023-05-01T13:46:24.194Z,18.71
2023-05-01T13:48:50.999Z,19.43
2023-05-01T13:51:23.187Z,19.31
2023-05-01T13:53:50.259Z,19.54
2023-05-01T13:56:16.952Z,19.29
2023-05-01T13:58:43.532Z,18.98
2023-05-01T14:01:15.894Z,18.98
2023-05-01T14:03:43.481Z,18.94
2023-05-01T14:06:13.874Z,18.41
2023-05-01T14:08:40.671Z,18.36
2023-05-01T14:11:08.216Z,18.65
2023-05-01T14:13:36.006Z,18.73
2023-05-01T14:16:10.366Z,18.62
2023-05-01T14:18:47.516Z,18.62
2023-05-01T14:21:15.859Z,18.70
2023-05-01T14:23:42.765Z,18.22
2023-05-01T14:26:11.255Z,19.17
2023-05-01T14:28:46.292Z,18.62
2023-05-01T14:31:24.182Z,19.13
2023-05-01T14:34:05.045Z,19.43
2023-05-01T14:36:32.874Z,19.67
2023-05-01T14:39:01.175Z,19.44
2023-05-01T14:41:29.779Z,19.55
2023-05-01T14:43:56.640Z,19.88
2023-05-01T14:46:34.054Z,20.04
2023-05-01T14:49:01.719Z,20.37
2023-05-01T14:51:28.678Z,20.22
2023-05-01T14:53:55.211Z,20.48
2023-05-01T14:56:22.929Z,20.25
2023-05-01T14:58:49.460Z,19.20
2023-05-01T15:01:16.060Z,19.48
2023-05-01T15:03:43.752Z,18.85
2023-05-01T15:06:10.593Z,19.06
2023-05-01T15:08:38.168Z,19.61
2023-05-01T15:11:04.811Z,19.58
2023-05-01T15:13:33.863Z,19.17
2023-05-01T15:16:00.626Z,18.26
2023-05-01T15:18:27.274Z,19.37
2023-05-01T15:20:53.843Z,18.75
2023-05-01T15:23:20.657Z,19.33
2023-05-01T15:25:47.952Z,19.77
2023-05-01T15:28:14.823Z,19.63
2023-05-01T15:30:46.425Z,18.75
